createdAt,value
2023-03-29T00:00:13.914Z,6.20
2023-03-29T00:02:42.210Z,6.20
2023-03-29T00:05:12.178Z,6.20
2023-03-29T00:07:42.498Z,6.20
2023-03-29T00:10:12.978Z,6.20
2023-03-29T00:12:41.988Z,6.20
2023-03-29T00:15:10.994Z,6.20
2023-03-29T00:17:38.873Z,6.20
2023-03-29T00:20:10.292Z,6.20
2023-03-29T00:22:39.809Z,6.20
2023-03-29T00:25:10.121Z,6.20
2023-03-29T00:27:38.759Z,6.20
2023-03-29T00:30:10.065Z,6.20
2023-03-29T00:32:38.426Z,6.20
2023-03-29T00:35:07.354Z,6.20
2023-03-29T00:37:35.251Z,6.20
2023-03-29T00:40:04.960Z,6.20
2023-03-29T00:42:34.197Z,6.20
2023-03-29T00:45:05.298Z,6.20
2023-03-29T00:47:37.454Z,6.20
2023-03-29T00:50:12.386Z,6.20
2023-03-29T00:52:42.013Z,6.20
2023-03-29T00:55:14.709Z,6.20
2023-03-29T00:57:46.475Z,6.20
2023-03-29T01:00:18.184Z,6.20
2023-03-29T01:02:51.043Z,6.20
2023-03-29T01:05:24.386Z,6.20
2023-03-29T01:07:58.398Z,6.20
2023-03-29T01:10:32.542Z,6.20
2023-03-29T01:13:07.792Z,6.20
2023-03-29T01:15:36.139Z,6.20
2023-03-29T01:18:04.239Z,6.20
2023-03-29T01:20:44.229Z,6.20
2023-03-29T01:23:38.109Z,6.20
2023-03-29T01:26:17.942Z,6.30
2023-03-29T01:28:51.665Z,6.30
2023-03-29T01:31:25.110Z,6.30
2023-03-29T01:33:59.429Z,6.30
2023-03-29T01:36:34.974Z,6.30
2023-03-29T01:39:07.118Z,6.30
2023-03-29T01:41:42.673Z,6.30
2023-03-29T01:44:16.709Z,6.40
2023-03-29T01:46:47.700Z,6.30
2023-03-29T01:49:22.371Z,6.30
2023-03-29T01:51:54.525Z,6.40
2023-03-29T01:54:26.602Z,6.40
2023-03-29T01:56:55.317Z,6.40
2023-03-29T01:59:28.855Z,6.40
2023-03-29T02:01:59.683Z,6.40
2023-03-29T02:04:33.008Z,6.40
2023-03-29T02:07:02.824Z,6.40
2023-03-29T02:09:31.281Z,6.50
2023-03-29T02:12:01.983Z,6.50
2023-03-29T02:14:31.410Z,6.50
2023-03-29T02:17:16.532Z,6.40
2023-03-29T02:19:46.051Z,6.40
2023-03-29T02:22:16.592Z,6.40
2023-03-29T02:24:47.077Z,6.40
2023-03-29T02:27:15.189Z,6.40
2023-03-29T02:29:46.806Z,6.40
2023-03-29T02:32:20.790Z,6.50
2023-03-29T02:34:56.405Z,6.50
2023-03-29T02:37:30.172Z,6.50
2023-03-29T02:39:59.528Z,6.50
2023-03-29T02:42:29.472Z,6.50
2023-03-29T02:45:03.581Z,6.40
2023-03-29T02:47:36.781Z,6.50
2023-03-29T02:50:05.230Z,6.50
2023-03-29T02:52:37.457Z,6.50
2023-03-29T02:55:09.063Z,6.50
2023-03-29T02:57:38.372Z,6.50
2023-03-29T03:00:10.193Z,6.50
2023-03-29T03:02:38.683Z,6.50
2023-03-29T03:05:07.342Z,6.40
2023-03-29T03:07:35.288Z,6.50
2023-03-29T03:10:03.907Z,6.50
2023-03-29T03:12:31.873Z,6.60
2023-03-29T03:14:59.753Z,6.60
2023-03-29T03:17:29.005Z,6.60
2023-03-29T03:19:57.096Z,6.60
2023-03-29T03:22:25.593Z,6.60
2023-03-29T03:24:53.462Z,6.60
2023-03-29T03:27:21.447Z,6.60
2023-03-29T03:29:49.625Z,6.60
2023-03-29T03:32:17.546Z,6.70
2023-03-29T03:34:46.810Z,6.70
2023-03-29T03:37:15.456Z,6.70
2023-03-29T03:39:43.444Z,6.70
2023-03-29T03:42:11.350Z,6.70
2023-03-29T03:44:39.450Z,6.80
2023-03-29T03:47:07.847Z,6.80
2023-03-29T03:49:35.901Z,6.80
2023-03-29T03:52:05.194Z,6.80
2023-03-29T03:54:33.177Z,6.80
2023-03-29T03:57:01.209Z,6.80
2023-03-29T03:59:29.101Z,6.80
2023-03-29T04:01:58.306Z,6.80
2023-03-29T04:04:26.873Z,6.80
2023-03-29T04:06:54.837Z,6.80
2023-03-29T04:09:24.297Z,6.80
2023-03-29T04:11:53.180Z,6.80
2023-03-29T04:14:21.618Z,6.80
2023-03-29T04:16:49.550Z,6.80
2023-03-29T04:19:17.893Z,6.80
2023-03-29T04:21:46.148Z,6.80
2023-03-29T04:24:15.265Z,6.80
2023-03-29T04:26:45.041Z,6.90
2023-03-29T04:29:12.923Z,6.90
2023-03-29T04:31:40.880Z,6.90
2023-03-29T04:34:08.888Z,6.90
2023-03-29T04:36:36.787Z,6.90
2023-03-29T04:39:04.778Z,6.90
2023-03-29T04:41:32.665Z,6.90
2023-03-29T04:44:02.668Z,6.90
2023-03-29T04:46:32.362Z,7.00
2023-03-29T04:49:00.523Z,6.90
2023-03-29T04:51:28.517Z,6.90
2023-03-29T04:53:56.610Z,7.00
2023-03-29T04:56:24.648Z,7.00
2023-03-29T04:58:52.584Z,7.00
2023-03-29T05:01:21.909Z,7.00
2023-03-29T05:03:49.866Z,7.00
2023-03-29T05:06:17.877Z,7.00
2023-03-29T05:08:46.071Z,7.00
2023-03-29T05:11:15.258Z,7.00
2023-03-29T05:13:43.104Z,7.00
2023-03-29T05:16:12.180Z,7.10
2023-03-29T05:18:41.538Z,7.10
2023-03-29T05:21:09.500Z,7.10
2023-03-29T05:23:37.522Z,7.10
2023-03-29T05:26:08.051Z,7.10
2023-03-29T05:28:35.929Z,7.10
2023-03-29T05:31:06.166Z,7.10
2023-03-29T05:33:34.620Z,7.20
2023-03-29T05:36:06.409Z,7.20
2023-03-29T05:38:34.508Z,7.20
2023-03-29T05:41:03.160Z,7.20
2023-03-29T05:43:31.688Z,7.10
2023-03-29T05:45:59.883Z,7.20
2023-03-29T05:48:28.694Z,7.20
2023-03-29T05:50:57.871Z,7.30
2023-03-29T05:53:28.322Z,7.30
2023-03-29T05:55:57.771Z,7.30
2023-03-29T05:58:26.404Z,7.30
2023-03-29T06:00:54.419Z,7.40
2023-03-29T06:03:25.534Z,7.40
2023-03-29T06:05:58.469Z,7.40
2023-03-29T06:08:28.543Z,7.40
2023-03-29T06:11:03.982Z,7.50
2023-03-29T06:13:34.469Z,7.50
2023-03-29T06:16:04.246Z,7.50
2023-03-29T06:18:32.275Z,7.50
2023-03-29T06:21:02.048Z,7.50
2023-03-29T06:23:31.968Z,7.60
2023-03-29T06:26:00.667Z,7.60
2023-03-29T06:28:28.601Z,7.60
2023-03-29T06:31:02.736Z,7.60
2023-03-29T06:33:32.317Z,7.60
2023-03-29T06:36:00.362Z,7.70
2023-03-29T06:38:28.631Z,7.70
2023-03-29T06:41:03.983Z,7.70
2023-03-29T06:43:33.408Z,7.80
2023-03-29T06:46:01.831Z,7.80
2023-03-29T06:48:30.465Z,7.90
2023-03-29T06:50:58.579Z,7.90
2023-03-29T06:53:28.127Z,8.00
2023-03-29T06:55:56.374Z,8.10
2023-03-29T06:58:25.731Z,8.10
2023-03-29T07:00:53.873Z,8.20
2023-03-29T07:03:23.510Z,8.30
2023-03-29T07:05:52.238Z,8.40
2023-03-29T07:08:21.421Z,8.50
2023-03-29T07:10:53.368Z,8.60
2023-03-29T07:13:21.242Z,8.70
2023-03-29T07:15:50.506Z,8.70
2023-03-29T07:18:18.674Z,8.80
2023-03-29T07:20:47.651Z,8.80
2023-03-29T07:23:15.579Z,8.80
2023-03-29T07:25:44.682Z,8.80
2023-03-29T07:28:13.067Z,8.80
2023-03-29T07:30:41.389Z,8.80
2023-03-29T07:33:10.689Z,8.70
2023-03-29T07:35:39.639Z,8.80
2023-03-29T07:38:08.149Z,8.80
2023-03-29T07:40:36.265Z,8.90
2023-03-29T07:43:08.857Z,9.00
2023-03-29T07:45:36.974Z,9.20
2023-03-29T07:48:05.655Z,9.30
2023-03-29T07:50:34.923Z,9.40
2023-03-29T07:53:03.378Z,9.60
2023-03-29T07:55:31.457Z,9.60
2023-03-29T07:57:59.490Z,9.70
2023-03-29T08:00:27.941Z,9.80
2023-03-29T08:02:56.117Z,9.90
2023-03-29T08:05:37.931Z,10.00
2023-03-29T08:08:10.725Z,10.00
2023-03-29T08:10:39.408Z,10.20
2023-03-29T08:13:09.372Z,10.30
2023-03-29T08:15:39.093Z,10.40
2023-03-29T08:18:07.706Z,10.50
2023-03-29T08:20:36.336Z,10.70
2023-03-29T08:23:04.270Z,10.90
2023-03-29T08:25:35.177Z,11.20
2023-03-29T08:28:04.199Z,11.40
2023-03-29T08:30:32.106Z,11.60
2023-03-29T08:33:00.238Z,11.70
2023-03-29T08:35:28.210Z,11.70
2023-03-29T08:37:56.265Z,11.60
2023-03-29T08:40:27.255Z,11.60
2023-03-29T08:43:39.085Z,11.60
2023-03-29T08:46:17.488Z,11.50
2023-03-29T08:48:47.978Z,11.50
2023-03-29T08:51:21.566Z,11.60
2023-03-29T08:53:53.293Z,11.60
2023-03-29T08:56:25.303Z,11.60
2023-03-29T08:58:57.078Z,11.60
2023-03-29T09:01:26.768Z,11.50
2023-03-29T09:04:05.688Z,11.50
2023-03-29T09:06:33.722Z,11.50
2023-03-29T09:09:02.383Z,11.40
2023-03-29T09:11:50.177Z,11.40
2023-03-29T09:14:33.021Z,11.30
2023-03-29T09:17:08.269Z,11.30
2023-03-29T09:19:40.516Z,11.20
2023-03-29T09:22:16.410Z,11.20
2023-03-29T09:25:04.574Z,11.20
2023-03-29T09:27:38.416Z,11.20
2023-03-29T09:30:16.837Z,11.20
2023-03-29T09:32:51.740Z,11.20
2023-03-29T09:35:24.760Z,11.20
2023-03-29T09:37:55.095Z,11.20
2023-03-29T09:40:27.541Z,11.20
2023-03-29T09:42:56.842Z,11.30
2023-03-29T09:45:26.195Z,11.30
2023-03-29T09:47:58.002Z,11.40
2023-03-29T09:50:31.980Z,11.40
2023-03-29T09:53:00.640Z,11.40
2023-03-29T09:55:32.325Z,11.50
2023-03-29T09:58:02.855Z,11.60
2023-03-29T10:00:32.108Z,11.70
2023-03-29T10:03:00.659Z,11.80
2023-03-29T10:05:33.262Z,11.90
2023-03-29T10:08:02.252Z,12.00
2023-03-29T10:10:31.909Z,12.10
2023-03-29T10:13:04.331Z,12.30
2023-03-29T10:15:33.657Z,12.30
2023-03-29T10:18:04.085Z,12.40
2023-03-29T10:20:32.148Z,12.50
2023-03-29T10:23:01.097Z,12.50
2023-03-29T10:25:31.189Z,12.50
2023-03-29T10:28:05.261Z,12.60
2023-03-29T10:30:37.201Z,12.80
2023-03-29T10:33:07.206Z,13.10
2023-03-29T10:35:40.289Z,13.30
2023-03-29T10:38:14.811Z,13.50
2023-03-29T10:40:47.479Z,13.90
2023-03-29T10:43:22.766Z,14.30
2023-03-29T10:45:53.732Z,14.80
2023-03-29T10:48:26.300Z,15.00
2023-03-29T10:50:54.276Z,15.20
2023-03-29T10:53:26.269Z,15.50
2023-03-29T10:56:03.476Z,15.80
2023-03-29T10:58:40.089Z,16.00
2023-03-29T11:01:17.383Z,16.20
2023-03-29T11:04:05.923Z,16.40
2023-03-29T11:06:38.796Z,16.60
2023-03-29T11:09:17.823Z,16.70
2023-03-29T11:12:12.232Z,16.70
2023-03-29T11:14:53.316Z,16.60
2023-03-29T11:17:31.551Z,16.60
2023-03-29T11:20:17.374Z,16.50
2023-03-29T11:22:53.737Z,16.40
2023-03-29T11:25:30.155Z,16.30
2023-03-29T11:28:04.171Z,16.20
2023-03-29T11:30:40.732Z,16.10
2023-03-29T11:33:23.100Z,16.10
2023-03-29T11:35:59.040Z,16.00
2023-03-29T11:38:34.711Z,16.00
2023-03-29T11:41:09.436Z,16.10
2023-03-29T11:43:42.802Z,16.20
2023-03-29T11:46:14.751Z,16.40
2023-03-29T11:48:49.266Z,16.60
2023-03-29T11:51:21.170Z,16.60
2023-03-29T11:53:57.279Z,16.70
2023-03-29T11:56:29.408Z,16.60
2023-03-29T11:59:04.752Z,16.70
2023-03-29T12:01:36.662Z,16.80
2023-03-29T12:04:11.498Z,17.00
2023-03-29T12:06:45.205Z,17.10
2023-03-29T12:09:24.682Z,17.20
2023-03-29T12:11:59.866Z,17.30
2023-03-29T12:14:31.458Z,17.30
2023-03-29T12:17:02.599Z,17.40
2023-03-29T12:19:39.676Z,17.30
2023-03-29T12:22:10.476Z,17.30
2023-03-29T12:24:42.581Z,17.30
2023-03-29T12:27:28.387Z,17.30
2023-03-29T12:30:23.971Z,17.50
2023-03-29T12:33:10.475Z,17.80
2023-03-29T12:35:52.476Z,18.10
2023-03-29T12:38:23.250Z,18.40
2023-03-29T12:40:57.832Z,18.70
2023-03-29T12:43:28.066Z,18.80
2023-03-29T12:45:59.130Z,18.80
2023-03-29T12:48:31.772Z,18.70
2023-03-29T12:51:02.900Z,18.70
2023-03-29T12:53:35.856Z,18.70
2023-03-29T12:56:13.838Z,18.80
2023-03-29T12:58:56.970Z,18.80
2023-03-29T13:01:30.573Z,18.80
2023-03-29T13:04:15.189Z,18.90
2023-03-29T13:07:04.062Z,19.00
2023-03-29T13:09:35.874Z,19.00
2023-03-29T13:12:20.971Z,19.00
2023-03-29T13:14:52.993Z,19.10
2023-03-29T13:17:26.918Z,19.10
2023-03-29T13:20:19.489Z,19.10
2023-03-29T13:22:59.419Z,19.20
2023-03-29T13:25:41.840Z,19.20
2023-03-29T13:28:18.048Z,19.30
2023-03-29T13:30:58.182Z,19.30
2023-03-29T13:33:58.008Z,19.30
2023-03-29T13:36:46.644Z,19.20
2023-03-29T13:39:20.801Z,19.00
2023-03-29T13:41:51.139Z,18.90
2023-03-29T13:44:27.071Z,18.80
2023-03-29T13:47:13.202Z,18.80
2023-03-29T13:49:48.159Z,18.70
2023-03-29T13:52:22.582Z,18.70
2023-03-29T13:54:57.488Z,18.70
2023-03-29T13:57:36.003Z,18.70
2023-03-29T14:00:17.144Z,18.60
2023-03-29T14:02:49.843Z,18.60
2023-03-29T14:05:20.568Z,18.60
2023-03-29T14:07:54.907Z,18.50
2023-03-29T14:10:28.147Z,18.50
2023-03-29T14:12:57.359Z,18.40
2023-03-29T14:15:27.729Z,18.50
2023-03-29T14:18:00.324Z,18.60
2023-03-29T14:20:29.675Z,18.60
2023-03-29T14:22:57.606Z,18.50
2023-03-29T14:25:27.306Z,18.40
2023-03-29T14:27:55.496Z,18.40
2023-03-29T14:30:28.302Z,18.40
2023-03-29T14:32:56.707Z,18.30
2023-03-29T14:35:31.295Z,18.30
2023-03-29T14:38:00.011Z,18.30
2023-03-29T14:40:32.487Z,18.30
2023-03-29T14:43:08.471Z,18.40
2023-03-29T14:45:37.201Z,18.40
2023-03-29T14:48:05.949Z,18.50
2023-03-29T14:50:34.729Z,18.50
2023-03-29T14:53:03.171Z,18.40
2023-03-29T14:55:32.937Z,18.30
2023-03-29T14:58:01.276Z,18.20
2023-03-29T15:00:31.373Z,18.20
2023-03-29T15:03:01.613Z,18.20
2023-03-29T15:05:39.583Z,18.10
2023-03-29T15:08:11.909Z,18.10
2023-03-29T15:10:44.759Z,18.00
2023-03-29T15:13:17.784Z,17.90
2023-03-29T15:15:46.504Z,17.90
2023-03-29T15:18:17.451Z,17.80
2023-03-29T15:20:46.117Z,17.80
2023-03-29T15:23:23.830Z,17.80
2023-03-29T15:25:58.501Z,17.70
2023-03-29T15:28:30.789Z,17.70
2023-03-29T15:31:07.668Z,17.60
2023-03-29T15:33:38.093Z,17.50
2023-03-29T15:36:08.089Z,17.50
2023-03-29T15:38:43.992Z,17.40
2023-03-29T15:41:15.501Z,17.40
2023-03-29T15:43:43.608Z,17.40
2023-03-29T15:46:13.293Z,17.50
2023-03-29T15:48:41.741Z,17.50
2023-03-29T15:51:11.725Z,17.50
2023-03-29T15:53:39.886Z,17.50
2023-03-29T15:56:10.147Z,17.50
2023-03-29T15:58:39.988Z,17.50
2023-03-29T16:01:19.348Z,17.40
2023-03-29T16:03:48.183Z,17.30
2023-03-29T16:06:17.539Z,17.20
2023-03-29T16:08:46.011Z,17.20
2023-03-29T16:11:14.078Z,17.10
2023-03-29T16:13:43.399Z,17.10
2023-03-29T16:16:12.393Z,17.10
2023-03-29T16:18:40.507Z,17.00
2023-03-29T16:21:12.780Z,17.00
2023-03-29T16:23:41.714Z,17.00
2023-03-29T16:26:12.545Z,17.00
2023-03-29T16:28:41.117Z,17.00
2023-03-29T16:31:12.374Z,16.90
2023-03-29T16:33:40.727Z,16.90
2023-03-29T16:36:09.444Z,16.90
2023-03-29T16:38:38.396Z,16.90
2023-03-29T16:41:07.146Z,16.80
2023-03-29T16:43:35.366Z,16.80
2023-03-29T16:46:04.159Z,16.80
2023-03-29T16:48:33.715Z,16.70
2023-03-29T16:51:02.264Z,16.70
2023-03-29T16:53:30.236Z,16.70
2023-03-29T16:55:58.473Z,16.70
2023-03-29T16:58:27.077Z,16.70
2023-03-29T17:00:56.164Z,16.70
2023-03-29T17:03:24.446Z,16.60
2023-03-29T17:05:54.861Z,16.60
2023-03-29T17:08:23.210Z,16.60
2023-03-29T17:10:54.040Z,16.60
2023-03-29T17:13:23.787Z,16.50
2023-03-29T17:15:53.246Z,16.50
2023-03-29T17:18:21.696Z,16.50
2023-03-29T17:20:51.703Z,16.40
2023-03-29T17:23:20.993Z,16.40
2023-03-29T17:25:49.055Z,16.30
2023-03-29T17:28:17.067Z,16.30
2023-03-29T17:30:46.101Z,16.30
2023-03-29T17:33:14.647Z,16.20
2023-03-29T17:35:43.261Z,16.20
2023-03-29T17:38:13.020Z,16.10
2023-03-29T17:40:42.362Z,16.10
2023-03-29T17:43:10.290Z,16.00
2023-03-29T17:45:38.398Z,16.00
2023-03-29T17:48:06.759Z,16.00
2023-03-29T17:50:34.896Z,15.90
2023-03-29T17:53:02.780Z,15.90
2023-03-29T17:55:30.758Z,15.90
2023-03-29T17:58:00.144Z,15.80
2023-03-29T18:00:28.514Z,15.80
2023-03-29T18:02:56.819Z,15.80
2023-03-29T18:05:24.763Z,15.80
2023-03-29T18:07:53.080Z,15.80
2023-03-29T18:10:20.994Z,15.70
2023-03-29T18:12:48.993Z,15.80
2023-03-29T18:15:18.662Z,15.70
2023-03-29T18:17:47.161Z,15.70
2023-03-29T18:20:16.098Z,15.70
2023-03-29T18:22:45.436Z,15.60
2023-03-29T18:25:14.452Z,15.60
2023-03-29T18:27:42.402Z,15.60
2023-03-29T18:30:13.284Z,15.50
2023-03-29T18:32:42.708Z,15.50
2023-03-29T18:35:11.619Z,15.50
2023-03-29T18:37:39.957Z,15.40
2023-03-29T18:40:10.161Z,15.40
2023-03-29T18:42:38.617Z,15.30
2023-03-29T18:45:07.557Z,15.40
2023-03-29T18:47:35.808Z,15.30
2023-03-29T18:50:05.960Z,15.30
2023-03-29T18:52:34.352Z,15.30
2023-03-29T18:55:02.694Z,15.20
2023-03-29T18:57:32.709Z,15.20
2023-03-29T19:00:10.404Z,15.20
2023-03-29T19:02:38.789Z,15.20
2023-03-29T19:05:09.753Z,15.20
2023-03-29T19:07:38.291Z,15.20
2023-03-29T19:10:08.163Z,15.10
2023-03-29T19:12:36.713Z,15.10
2023-03-29T19:15:05.342Z,15.10
2023-03-29T19:17:33.495Z,15.10
2023-03-29T19:20:01.622Z,15.10
2023-03-29T19:22:31.146Z,15.00
2023-03-29T19:24:59.465Z,15.00
2023-03-29T19:27:27.742Z,15.00
2023-03-29T19:29:55.781Z,15.00
2023-03-29T19:32:23.883Z,15.00
2023-03-29T19:34:52.054Z,15.00
2023-03-29T19:37:20.295Z,15.00
2023-03-29T19:39:49.611Z,15.00
2023-03-29T19:42:17.512Z,14.90
2023-03-29T19:44:45.859Z,14.90
2023-03-29T19:47:14.001Z,14.90
2023-03-29T19:49:42.560Z,14.90
2023-03-29T19:54:56.672Z,14.80
2023-03-29T19:57:24.932Z,14.80
2023-03-29T19:59:54.061Z,14.70
2023-03-29T20:02:22.014Z,14.70
2023-03-29T20:04:49.966Z,14.70
2023-03-29T20:07:17.865Z,14.70
2023-03-29T20:09:46.463Z,14.60
2023-03-29T20:12:15.784Z,14.50
2023-03-29T20:14:46.851Z,14.50
2023-03-29T20:17:14.863Z,14.40
2023-03-29T20:19:44.115Z,14.40
2023-03-29T20:22:12.925Z,14.30
2023-03-29T20:24:41.064Z,14.20
2023-03-29T20:27:09.109Z,14.20
2023-03-29T20:29:38.525Z,14.20
2023-03-29T20:32:06.969Z,14.10
2023-03-29T20:34:35.237Z,14.00
2023-03-29T20:37:03.660Z,14.00
2023-03-29T20:39:31.735Z,13.90
2023-03-29T20:42:00.532Z,13.90
2023-03-29T20:44:28.632Z,13.90
2023-03-29T20:47:05.004Z,13.80
2023-03-29T20:49:37.925Z,13.80
2023-03-29T20:52:08.189Z,13.70
2023-03-29T20:54:37.036Z,13.70
2023-03-29T20:57:05.422Z,13.70
2023-03-29T20:59:34.345Z,13.60
2023-03-29T21:02:03.694Z,13.60
2023-03-29T21:04:31.782Z,13.60
2023-03-29T21:07:02.521Z,13.60
2023-03-29T21:09:31.302Z,13.50
2023-03-29T21:11:59.451Z,13.50
2023-03-29T21:14:30.256Z,13.50
2023-03-29T21:16:58.705Z,13.50
2023-03-29T21:19:28.378Z,13.40
2023-03-29T21:21:56.589Z,13.40
2023-03-29T21:24:24.528Z,13.40
2023-03-29T21:26:52.577Z,13.30
2023-03-29T21:29:20.543Z,13.30
2023-03-29T21:31:48.545Z,13.30
2023-03-29T21:34:16.526Z,13.30
2023-03-29T21:36:45.860Z,13.30
2023-03-29T21:39:13.868Z,13.20
2023-03-29T21:41:41.768Z,13.20
2023-03-29T21:44:09.738Z,13.20
2023-03-29T21:46:37.601Z,13.20
2023-03-29T21:49:07.870Z,13.20
2023-03-29T21:51:35.807Z,13.20
2023-03-29T21:54:05.342Z,13.20
2023-03-29T21:56:33.289Z,13.20
2023-03-29T21:59:01.278Z,13.20
2023-03-29T22:01:29.477Z,13.20
2023-03-29T22:03:57.596Z,13.20
2023-03-29T22:06:25.528Z,13.20
2023-03-29T22:08:53.952Z,13.20
2023-03-29T22:11:23.412Z,13.20
2023-03-29T22:13:53.359Z,13.20
2023-03-29T22:16:21.724Z,13.20
2023-03-29T22:18:50.409Z,13.20
2023-03-29T22:21:20.122Z,13.20
2023-03-29T22:23:49.893Z,13.20
2023-03-29T22:26:20.479Z,13.20
2023-03-29T22:28:49.964Z,13.20
2023-03-29T22:31:20.239Z,13.20
2023-03-29T22:33:48.833Z,13.20
2023-03-29T22:36:18.803Z,13.20
2023-03-29T22:38:47.731Z,13.20
2023-03-29T22:41:16.925Z,13.20
2023-03-29T22:43:45.387Z,13.20
2023-03-29T22:46:15.386Z,13.20
2023-03-29T22:48:43.369Z,13.20
2023-03-29T22:51:11.452Z,13.20
2023-03-29T22:53:39.387Z,13.20
2023-03-29T22:56:09.063Z,13.20
2023-03-29T22:58:37.661Z,13.20
2023-03-29T23:01:06.568Z,13.20
2023-03-29T23:03:36.011Z,13.20
2023-03-29T23:06:04.041Z,13.20
2023-03-29T23:08:33.280Z,13.10
2023-03-29T23:11:01.942Z,13.10
2023-03-29T23:13:30.340Z,13.00
2023-03-29T23:16:00.150Z,13.00
2023-03-29T23:18:29.431Z,13.00
2023-03-29T23:21:00.281Z,13.00
2023-03-29T23:23:29.287Z,12.90
2023-03-29T23:25:57.824Z,13.00
2023-03-29T23:28:27.517Z,12.90
2023-03-29T23:30:57.075Z,13.00
2023-03-29T23:33:26.538Z,12.90
2023-03-29T23:35:54.803Z,12.90
2023-03-29T23:38:24.492Z,12.90
2023-03-29T23:40:58.797Z,12.90
2023-03-29T23:43:31.774Z,12.90
2023-03-29T23:46:01.090Z,12.90
2023-03-29T23:48:29.171Z,12.90
2023-03-29T23:50:57.914Z,12.90
2023-03-29T23:53:28.882Z,12.90
2023-03-29T23:55:58.287Z,12.90
2023-03-29T23:58:26.211Z,12.80
